Eureka, CA

3:20 AM PDT on October 23, 2014 (GMT -0700)
Henderson Center | Change Station
CLOSE
Current Station
Personal Weather Station
Location: Eureka, CA
Elevation: 125 ft
Nearby Weather Stations

Elev 125 ft 40.78 °N, 124.17 °W | Updated 1 second ago

Overcast
Overcast
61.0 °F
Feels Like 61.0 °F
N
0.0
Wind Variable Wind from ESE
Gusts 0.0 mph

Today
High -- | Low -- °F
--% Chance of Precip.
Yesterday
High -- | Low -- °F
Precip. -- in
7:36 AM 6:24 PM
Waning Crescent, 0% visible
Pressure 29.91 in
Visibility 10.0 miles
Clouds Few 2000 ft
Overcast 3600 ft
Dew Point 60 °F
Humidity 98%
Rainfall 0.24 in
Snow Depth Not available.
UV 0 out of 12
Pollen 3.90 out of 12
Air Quality Not available.
Flu Activity Sporadic
METAR KACV 230953Z AUTO 15009KT 10SM -RA FEW020 OVC036 16/14 A2990 RMK AO2 PK WND 12029/0900 RAE01B33 SLP129 P0001 T01560139

More Conditions Fewer Conditions

Pressure 29.91 in
Visibility 10.0 miles
Clouds Few 2000 ft
Overcast 3600 ft
Dew Point 60 °F
Humidity 98%
Rainfall 0.24 in
Snow Depth Not available.
UV 0 out of 12
Pollen 3.90 out of 12
Air Quality Not available.
Flu Activity Sporadic
METAR KACV 230953Z AUTO 15009KT 10SM -RA FEW020 OVC036 16/14 A2990 RMK AO2 PK WND 12029/0900 RAE01B33 SLP129 P0001 T01560139

More Conditions Fewer Conditions

10-Day Weather Forecast

Almanac

Astronomy

Oct. 23, 2014 Rise Set
Actual Time 7:36 AM PDT 6:24 PM PDT
Civil Twilight 7:08 AM PDT 6:52 PM PDT
Nautical Twilight 6:36 AM PDT 7:24 PM PDT
Astronomical Twilight 6:05 AM PDT 7:55 PM PDT
Moon 7:21 AM PDT 6:29 PM PDT
Length of Visible Light 11h 43m
Length of Day
10h 47m
Tomorrow will be 2m 31s shorter.
Waning Crescent, 0% of the Moon is Illuminated
Today
Waning Crescent
Oct 23
New
Oct 30
First Quarter
Nov 6
Full
Nov 14
Last Quarter

Today's Extremes

State Highs State Lows

Community

WunderPhotos

Upload Photos

1,764,202 photos uploaded!

Nearby

Snow Depth

Station Depth Elevation
Adin Mountain 0 in 6200 ft
Independence Creek 0 in 6500 ft
Independence Camp 0 in 7000 ft
Truckee #2 0 in 6400 ft
Tahoe City Cross 1 in 6750 ft

Earthquake Activity

City Distance Mag. Time & Date
Crescent City, California 74 miles 2.6 1:22 AM PDT
2014-10-21
Minimum magnitude displayed is 2.5.

Coastal Water Temperatures

Place Temperature
North Spit, CA 57.9 °F
Crescent City, CA 60.1 °F

Nearby Weather Stations